createdAt,value
2022-11-29T00:00:05.151Z,6.57
2022-11-29T00:01:05.167Z,6.64
2022-11-29T00:02:05.312Z,6.48
2022-11-29T00:03:05.265Z,6.53
2022-11-29T00:04:05.114Z,6.53
2022-11-29T00:05:05.105Z,6.51
2022-11-29T00:06:05.101Z,6.53
2022-11-29T00:07:05.085Z,6.51
2022-11-29T00:08:05.078Z,6.45
2022-11-29T00:09:05.054Z,6.54
2022-11-29T00:10:06.061Z,6.57
2022-11-29T00:11:05.066Z,6.48
2022-11-29T00:12:05.043Z,6.51
2022-11-29T00:13:05.037Z,6.57
2022-11-29T00:14:05.026Z,6.60
2022-11-29T00:15:05.014Z,6.57
2022-11-29T00:16:05.015Z,6.58
2022-11-29T00:17:05.030Z,6.68
2022-11-29T00:18:04.991Z,6.68
2022-11-29T00:19:04.979Z,6.64
2022-11-29T00:20:04.971Z,6.65
2022-11-29T00:21:04.988Z,6.65
2022-11-29T00:22:04.956Z,6.63
2022-11-29T00:23:04.946Z,6.63
2022-11-29T00:24:04.931Z,6.69
2022-11-29T00:25:04.925Z,6.63
2022-11-29T00:26:04.927Z,6.73
2022-11-29T00:27:04.913Z,6.68
2022-11-29T00:28:04.903Z,6.71
2022-11-29T00:29:04.900Z,6.61
2022-11-29T00:30:04.896Z,6.60
2022-11-29T00:31:04.934Z,6.64
2022-11-29T00:32:04.867Z,6.72
2022-11-29T00:33:04.860Z,6.75
2022-11-29T00:34:04.846Z,6.71
2022-11-29T00:35:09.426Z,6.65
2022-11-29T00:36:06.843Z,6.61
2022-11-29T00:37:04.820Z,6.73
2022-11-29T00:38:04.811Z,6.69
2022-11-29T00:39:04.799Z,6.65
2022-11-29T00:40:04.793Z,6.73
2022-11-29T00:41:04.800Z,6.71
2022-11-29T00:42:04.775Z,6.68
2022-11-29T00:43:04.766Z,6.75
2022-11-29T00:44:04.754Z,6.55
2022-11-29T00:45:04.750Z,6.68
2022-11-29T00:46:04.775Z,6.65
2022-11-29T00:47:04.736Z,6.63
2022-11-29T00:48:04.725Z,6.63
2022-11-29T00:49:04.715Z,6.68
2022-11-29T00:50:04.713Z,6.68
2022-11-29T00:51:04.712Z,6.71
2022-11-29T00:52:04.687Z,6.64
2022-11-29T00:53:04.683Z,6.68
2022-11-29T00:54:04.672Z,6.72
2022-11-29T00:55:04.666Z,6.72
2022-11-29T00:56:04.667Z,6.68
2022-11-29T00:57:04.644Z,6.54
2022-11-29T00:58:04.634Z,6.73
2022-11-29T00:59:04.627Z,6.69
2022-11-29T01:00:04.622Z,6.65
2022-11-29T01:01:04.665Z,6.69
2022-11-29T01:02:04.641Z,6.71
2022-11-29T01:03:04.582Z,6.72
2022-11-29T01:04:05.589Z,6.71
2022-11-29T01:05:04.576Z,6.76
2022-11-29T01:06:04.573Z,6.72
2022-11-29T01:07:04.557Z,6.69
2022-11-29T01:08:04.556Z,6.75
2022-11-29T01:09:04.537Z,6.64
2022-11-29T01:10:04.533Z,6.75
2022-11-29T01:11:04.527Z,6.69
2022-11-29T01:12:05.517Z,6.68
2022-11-29T01:13:04.504Z,6.76
2022-11-29T01:14:04.510Z,6.73
2022-11-29T01:15:04.488Z,6.79
2022-11-29T01:16:04.488Z,6.73
2022-11-29T01:17:04.484Z,6.76
2022-11-29T01:18:04.461Z,6.76
2022-11-29T01:19:04.454Z,6.83
2022-11-29T01:20:04.445Z,6.82
2022-11-29T01:21:04.449Z,6.71
2022-11-29T01:22:04.427Z,6.81
2022-11-29T01:23:04.410Z,6.83
2022-11-29T01:24:05.402Z,6.76
2022-11-29T01:25:04.400Z,6.69
2022-11-29T01:26:04.400Z,6.64
2022-11-29T01:27:04.379Z,6.75
2022-11-29T01:28:04.370Z,6.72
2022-11-29T01:29:04.362Z,6.71
2022-11-29T01:30:04.353Z,6.72
2022-11-29T01:31:04.398Z,6.81
2022-11-29T01:32:04.332Z,6.76
2022-11-29T01:33:04.331Z,6.82
2022-11-29T01:34:04.315Z,6.72
2022-11-29T01:35:04.307Z,6.81
2022-11-29T01:36:04.307Z,6.78
2022-11-29T01:37:04.292Z,6.81
2022-11-29T01:38:04.281Z,6.72
2022-11-29T01:39:04.268Z,6.87
2022-11-29T01:40:04.257Z,6.81
2022-11-29T01:41:04.262Z,6.79
2022-11-29T01:42:04.242Z,6.72
2022-11-29T01:43:04.240Z,6.86
2022-11-29T01:44:04.224Z,6.82
2022-11-29T01:45:04.222Z,6.79
2022-11-29T01:46:04.244Z,6.83
2022-11-29T01:47:04.194Z,6.75
2022-11-29T01:48:04.187Z,6.82
2022-11-29T01:49:04.179Z,6.86
2022-11-29T01:50:04.166Z,6.76
2022-11-29T01:51:04.170Z,6.79
2022-11-29T01:52:04.151Z,6.75
2022-11-29T01:53:04.137Z,6.78
2022-11-29T01:54:04.128Z,6.73
2022-11-29T01:55:04.126Z,6.72
2022-11-29T01:56:04.162Z,6.78
2022-11-29T01:57:04.098Z,6.76
2022-11-29T01:58:04.090Z,6.72
2022-11-29T01:59:04.082Z,6.86
2022-11-29T02:00:04.079Z,6.81
2022-11-29T02:01:04.130Z,6.78
2022-11-29T02:02:04.118Z,6.89
2022-11-29T02:03:05.042Z,6.91
2022-11-29T02:04:04.034Z,6.89
2022-11-29T02:05:04.022Z,6.82
2022-11-29T02:06:04.031Z,6.89
2022-11-29T02:07:04.010Z,6.81
2022-11-29T02:08:03.996Z,6.78
2022-11-29T02:09:03.987Z,6.89
2022-11-29T02:10:03.990Z,6.75
2022-11-29T02:11:03.983Z,6.78
2022-11-29T02:12:03.964Z,6.75
2022-11-29T02:13:03.966Z,6.72
2022-11-29T02:14:03.946Z,6.69
2022-11-29T02:15:03.932Z,6.75
2022-11-29T02:16:03.984Z,6.69
2022-11-29T02:17:03.927Z,6.73
2022-11-29T02:18:03.906Z,6.68
2022-11-29T02:19:03.897Z,6.65
2022-11-29T02:20:35.794Z,6.69
2022-11-29T02:21:03.878Z,6.75
2022-11-29T02:22:03.885Z,6.71
2022-11-29T02:23:03.857Z,6.69
2022-11-29T02:24:03.859Z,6.75
2022-11-29T02:25:03.843Z,6.69
2022-11-29T02:26:03.836Z,6.78
2022-11-29T02:27:03.839Z,6.71
2022-11-29T02:28:03.815Z,6.72
2022-11-29T02:29:03.809Z,6.72
2022-11-29T02:30:03.798Z,6.64
2022-11-29T02:31:03.855Z,6.69
2022-11-29T02:32:03.792Z,6.55
2022-11-29T02:33:03.775Z,6.58
2022-11-29T02:34:03.763Z,6.54
2022-11-29T02:35:03.756Z,6.46
2022-11-29T02:36:03.741Z,6.57
2022-11-29T02:37:08.563Z,6.53
2022-11-29T02:38:05.725Z,6.42
2022-11-29T02:39:03.714Z,6.30
2022-11-29T02:40:03.712Z,6.33
2022-11-29T02:41:03.696Z,6.45
2022-11-29T02:42:03.696Z,6.40
2022-11-29T02:43:03.676Z,6.48
2022-11-29T02:44:03.666Z,6.40
2022-11-29T02:45:03.665Z,6.42
2022-11-29T02:46:03.669Z,6.43
2022-11-29T02:47:03.647Z,6.58
2022-11-29T02:48:03.627Z,6.58
2022-11-29T02:49:03.616Z,6.54
2022-11-29T02:50:03.612Z,6.51
2022-11-29T02:51:03.601Z,6.55
2022-11-29T02:52:03.605Z,6.54
2022-11-29T02:53:03.580Z,6.58
2022-11-29T02:54:03.569Z,6.64
2022-11-29T02:55:03.565Z,6.71
2022-11-29T02:56:03.554Z,6.60
2022-11-29T02:57:03.551Z,6.65
2022-11-29T02:58:03.535Z,6.68
2022-11-29T02:59:03.539Z,6.54
2022-11-29T03:00:03.521Z,6.72
2022-11-29T03:01:03.543Z,6.68
2022-11-29T03:02:03.691Z,6.72
2022-11-29T03:03:03.495Z,6.72
2022-11-29T03:04:03.483Z,6.68
2022-11-29T03:05:03.477Z,6.68
2022-11-29T03:06:03.466Z,6.71
2022-11-29T03:07:03.467Z,6.65
2022-11-29T03:08:03.447Z,6.71
2022-11-29T03:09:03.440Z,6.71
2022-11-29T03:10:03.427Z,6.69
2022-11-29T03:11:03.423Z,6.76
2022-11-29T03:12:03.423Z,6.69
2022-11-29T03:13:03.411Z,6.63
2022-11-29T03:14:03.390Z,6.68
2022-11-29T03:15:04.424Z,6.71
2022-11-29T03:16:03.486Z,6.73
2022-11-29T03:17:03.381Z,6.68
2022-11-29T03:18:03.357Z,6.63
2022-11-29T03:19:03.344Z,6.71
2022-11-29T03:20:03.342Z,6.72
2022-11-29T03:21:03.334Z,6.78
2022-11-29T03:22:03.323Z,6.75
2022-11-29T03:23:04.312Z,6.71
2022-11-29T03:24:03.304Z,6.61
2022-11-29T03:25:03.300Z,6.68
2022-11-29T03:26:03.289Z,6.72
2022-11-29T03:27:03.283Z,6.71
2022-11-29T03:28:03.268Z,6.78
2022-11-29T03:29:03.259Z,6.69
2022-11-29T03:30:03.349Z,6.63
2022-11-29T03:31:03.294Z,6.73
2022-11-29T03:32:03.255Z,6.68
2022-11-29T03:33:03.230Z,6.65
2022-11-29T03:34:03.213Z,6.76
2022-11-29T03:35:03.204Z,6.68
2022-11-29T03:36:03.199Z,6.69
2022-11-29T03:37:03.195Z,6.65
2022-11-29T03:38:03.174Z,6.73
2022-11-29T03:39:03.163Z,6.75
2022-11-29T03:40:03.150Z,6.68
2022-11-29T03:41:03.146Z,6.73
2022-11-29T03:42:03.148Z,6.71
2022-11-29T03:43:03.129Z,6.68
2022-11-29T03:44:03.228Z,6.81
2022-11-29T03:45:03.111Z,6.64
2022-11-29T03:46:03.271Z,6.65
2022-11-29T03:47:03.106Z,6.68
2022-11-29T03:48:03.084Z,6.64
2022-11-29T03:49:03.073Z,6.64
2022-11-29T03:50:03.064Z,6.64
2022-11-29T03:51:03.050Z,6.60
2022-11-29T03:52:03.058Z,6.71
2022-11-29T03:53:03.032Z,6.64
2022-11-29T03:54:03.023Z,6.69
2022-11-29T03:55:03.009Z,6.79
2022-11-29T03:56:03.006Z,6.75
2022-11-29T03:57:03.001Z,6.64
2022-11-29T03:58:02.985Z,6.60
2022-11-29T03:59:02.975Z,6.69
2022-11-29T04:00:02.978Z,6.68
2022-11-29T04:01:02.957Z,6.55
2022-11-29T04:02:02.957Z,6.65
2022-11-29T04:03:03.028Z,6.57
2022-11-29T04:04:02.924Z,6.61
2022-11-29T04:05:02.916Z,6.68
2022-11-29T04:06:02.907Z,6.71
2022-11-29T04:07:02.907Z,6.69
2022-11-29T04:08:02.928Z,6.58
2022-11-29T04:09:02.880Z,6.69
2022-11-29T04:10:02.870Z,6.68
2022-11-29T04:11:02.865Z,6.69
2022-11-29T04:12:02.862Z,6.68
2022-11-29T04:13:02.844Z,6.65
2022-11-29T04:14:02.831Z,6.68
2022-11-29T04:15:02.823Z,6.55
2022-11-29T04:16:03.011Z,6.57
2022-11-29T04:17:02.813Z,6.63
2022-11-29T04:18:02.798Z,6.60
2022-11-29T04:19:02.785Z,6.57
2022-11-29T04:20:02.775Z,6.53
2022-11-29T04:21:02.766Z,6.55
2022-11-29T04:22:02.768Z,6.54
2022-11-29T04:23:02.743Z,6.51
2022-11-29T04:24:02.737Z,6.54
2022-11-29T04:25:02.724Z,6.63
2022-11-29T04:26:02.709Z,6.60
2022-11-29T04:27:02.715Z,6.57
2022-11-29T04:28:02.699Z,6.63
2022-11-29T04:29:02.684Z,6.71
2022-11-29T04:30:02.680Z,6.61
2022-11-29T04:31:02.727Z,6.63
2022-11-29T04:32:02.669Z,6.61
2022-11-29T04:33:02.654Z,6.63
2022-11-29T04:34:02.639Z,6.60
2022-11-29T04:35:02.634Z,6.50
2022-11-29T04:36:02.763Z,6.64
2022-11-29T04:37:02.625Z,6.65
2022-11-29T04:38:02.599Z,6.69
2022-11-29T04:39:02.595Z,6.68
2022-11-29T04:40:03.010Z,6.71
2022-11-29T04:41:02.576Z,6.69
2022-11-29T04:42:02.580Z,6.65
2022-11-29T04:43:02.556Z,6.64
2022-11-29T04:44:02.567Z,6.73
2022-11-29T04:45:02.546Z,6.71
2022-11-29T04:46:02.616Z,6.71
2022-11-29T04:47:02.535Z,6.68
2022-11-29T04:48:02.519Z,6.69
2022-11-29T04:49:02.513Z,6.69
2022-11-29T04:50:02.505Z,6.69
2022-11-29T04:51:02.497Z,6.68
2022-11-29T04:52:02.510Z,6.63
2022-11-29T04:53:02.474Z,6.73
2022-11-29T04:54:02.465Z,6.68
2022-11-29T04:55:02.463Z,6.55
2022-11-29T04:56:02.446Z,6.57
2022-11-29T04:57:02.449Z,6.63
2022-11-29T04:58:02.440Z,6.63
2022-11-29T04:59:02.422Z,6.61
2022-11-29T05:00:02.412Z,6.58
2022-11-29T05:01:02.407Z,6.65
2022-11-29T05:02:02.451Z,6.54
2022-11-29T05:03:02.455Z,6.54
2022-11-29T05:04:02.378Z,6.53
2022-11-29T05:05:02.370Z,6.48
2022-11-29T05:06:02.355Z,6.40
2022-11-29T05:07:02.363Z,6.39
2022-11-29T05:08:02.338Z,6.43
2022-11-29T05:09:02.331Z,6.39
2022-11-29T05:10:02.319Z,6.45
2022-11-29T05:11:02.313Z,6.53
2022-11-29T05:12:02.305Z,6.36
2022-11-29T05:13:02.308Z,6.46
2022-11-29T05:14:02.285Z,6.30
2022-11-29T05:15:02.274Z,6.28
2022-11-29T05:16:02.284Z,6.24
2022-11-29T05:17:02.254Z,6.28
2022-11-29T05:18:02.262Z,6.21
2022-11-29T05:19:02.239Z,6.39
2022-11-29T05:20:02.236Z,6.40
2022-11-29T05:21:02.223Z,6.30
2022-11-29T05:22:02.220Z,6.40
2022-11-29T05:23:02.260Z,6.32
2022-11-29T05:24:02.207Z,6.33
2022-11-29T05:25:02.190Z,6.40
2022-11-29T05:26:02.180Z,6.45
2022-11-29T05:27:02.173Z,6.45
2022-11-29T05:28:06.969Z,6.57
2022-11-29T05:29:04.157Z,6.48
2022-11-29T05:30:02.141Z,6.51
2022-11-29T05:31:02.244Z,6.54
2022-11-29T05:32:02.125Z,6.55
2022-11-29T05:33:02.134Z,6.58
2022-11-29T05:34:02.109Z,6.45
2022-11-29T05:35:02.099Z,6.45
2022-11-29T05:36:02.089Z,6.33
2022-11-29T05:37:02.084Z,6.27
2022-11-29T05:38:02.113Z,6.27
2022-11-29T05:39:02.070Z,6.40
2022-11-29T05:40:02.055Z,6.27
2022-11-29T05:41:02.048Z,6.33
2022-11-29T05:42:02.038Z,6.33
2022-11-29T05:43:02.044Z,6.38
2022-11-29T05:44:02.020Z,6.48
2022-11-29T05:45:02.015Z,6.54
2022-11-29T05:46:02.031Z,6.45
2022-11-29T05:47:01.995Z,6.46
2022-11-29T05:48:01.993Z,6.58
2022-11-29T05:49:01.975Z,6.64
2022-11-29T05:50:01.970Z,6.63
2022-11-29T05:51:01.957Z,6.71
2022-11-29T05:52:01.941Z,6.61
2022-11-29T05:53:01.949Z,6.60
2022-11-29T05:54:01.929Z,6.72
2022-11-29T05:55:01.920Z,6.75
2022-11-29T05:56:01.910Z,6.68
2022-11-29T05:57:01.901Z,6.79
2022-11-29T05:58:01.903Z,6.69
2022-11-29T05:59:01.900Z,6.75
2022-11-29T06:00:01.903Z,6.75
2022-11-29T06:01:01.869Z,6.76
2022-11-29T06:02:01.907Z,6.64
2022-11-29T06:03:01.886Z,6.68
2022-11-29T06:04:01.859Z,6.68
2022-11-29T06:05:01.834Z,6.75
2022-11-29T06:06:01.820Z,6.68
2022-11-29T06:07:01.833Z,6.68
2022-11-29T06:08:01.815Z,6.73
2022-11-29T06:09:01.794Z,6.76
2022-11-29T06:10:02.230Z,6.69
2022-11-29T06:11:02.775Z,6.73
2022-11-29T06:12:01.772Z,6.82
2022-11-29T06:13:01.756Z,6.81
2022-11-29T06:14:02.753Z,6.73
2022-11-29T06:15:01.745Z,6.61
2022-11-29T06:16:01.762Z,6.45
2022-11-29T06:17:01.718Z,6.32
2022-11-29T06:18:01.723Z,6.27
2022-11-29T06:19:01.698Z,6.19
2022-11-29T06:20:01.690Z,6.17
2022-11-29T06:21:01.677Z,6.27
2022-11-29T06:22:01.677Z,6.46
2022-11-29T06:23:01.673Z,6.28
2022-11-29T06:24:01.651Z,6.32
2022-11-29T06:25:01.639Z,6.38
2022-11-29T06:26:04.246Z,6.35
2022-11-29T06:27:02.629Z,6.50
2022-11-29T06:28:01.628Z,6.40
2022-11-29T06:29:01.619Z,6.55
2022-11-29T06:30:01.605Z,6.54
2022-11-29T06:31:01.690Z,6.39
2022-11-29T06:32:01.582Z,6.51
2022-11-29T06:33:01.583Z,6.39
2022-11-29T06:34:01.567Z,6.42
2022-11-29T06:35:01.556Z,6.33
2022-11-29T06:36:01.545Z,6.33
2022-11-29T06:37:01.539Z,6.36
2022-11-29T06:38:01.539Z,6.32
2022-11-29T06:39:01.518Z,6.30
2022-11-29T06:40:01.520Z,6.25
2022-11-29T06:41:02.399Z,6.36
2022-11-29T06:42:02.495Z,6.39
2022-11-29T06:43:01.498Z,6.39
2022-11-29T06:44:01.482Z,6.48
2022-11-29T06:45:01.472Z,6.51
2022-11-29T06:46:01.464Z,6.53
2022-11-29T06:47:01.488Z,6.55
2022-11-29T06:48:01.456Z,6.65
2022-11-29T06:49:02.432Z,6.71
2022-11-29T06:50:02.428Z,6.72
2022-11-29T06:51:01.416Z,6.71
2022-11-29T06:52:01.412Z,6.72
2022-11-29T06:53:01.412Z,6.78
2022-11-29T06:54:01.390Z,6.81
2022-11-29T06:55:01.408Z,6.82
2022-11-29T06:56:01.378Z,6.68
2022-11-29T06:57:01.369Z,6.78
2022-11-29T06:58:01.372Z,6.81
2022-11-29T06:59:01.358Z,6.81
2022-11-29T07:00:01.398Z,6.90
2022-11-29T07:01:01.425Z,6.94
2022-11-29T07:02:01.351Z,6.93
2022-11-29T07:03:01.317Z,6.94
2022-11-29T07:04:01.299Z,6.82
2022-11-29T07:05:02.292Z,6.97
2022-11-29T07:06:01.289Z,6.93
2022-11-29T07:07:01.275Z,7.05
2022-11-29T07:08:01.410Z,7.01
2022-11-29T07:09:01.261Z,6.89
2022-11-29T07:10:01.252Z,6.87
2022-11-29T07:11:01.239Z,6.94
2022-11-29T07:12:01.229Z,6.99
2022-11-29T07:13:01.240Z,6.94
2022-11-29T07:14:01.215Z,7.07
2022-11-29T07:15:01.205Z,7.07
2022-11-29T07:16:01.246Z,6.96
2022-11-29T07:17:01.193Z,6.96
2022-11-29T07:18:01.192Z,7.04
2022-11-29T07:19:01.175Z,7.05
2022-11-29T07:20:01.167Z,7.04
2022-11-29T07:21:01.152Z,7.12
2022-11-29T07:22:01.142Z,7.12
2022-11-29T07:23:01.145Z,7.08
2022-11-29T07:24:01.121Z,7.08
2022-11-29T07:25:01.123Z,7.00
2022-11-29T07:26:01.103Z,7.00
2022-11-29T07:27:01.094Z,7.00
2022-11-29T07:28:01.096Z,6.99
2022-11-29T07:29:01.074Z,6.93
2022-11-29T07:30:01.065Z,6.78
2022-11-29T07:31:01.108Z,6.78
2022-11-29T07:32:01.053Z,6.86
2022-11-29T07:33:01.059Z,6.87
2022-11-29T07:34:01.037Z,6.89
2022-11-29T07:35:01.024Z,6.97
2022-11-29T07:36:01.017Z,7.00
2022-11-29T07:37:01.008Z,6.91
2022-11-29T07:38:01.004Z,7.07
2022-11-29T07:39:00.998Z,6.91
2022-11-29T07:40:00.981Z,6.93
2022-11-29T07:41:00.971Z,6.91
2022-11-29T07:42:00.958Z,6.91
2022-11-29T07:43:00.963Z,6.93
2022-11-29T07:44:00.944Z,7.07
2022-11-29T07:45:00.937Z,7.11
2022-11-29T07:46:00.924Z,6.99
2022-11-29T07:47:00.964Z,7.07
2022-11-29T07:48:00.905Z,7.12
2022-11-29T07:49:00.905Z,7.08
2022-11-29T07:50:00.883Z,7.15
2022-11-29T07:51:00.871Z,7.18
2022-11-29T07:52:00.860Z,7.14
2022-11-29T07:53:00.851Z,7.07
2022-11-29T07:54:00.857Z,7.05
2022-11-29T07:55:00.833Z,7.15
2022-11-29T07:56:00.823Z,7.14
2022-11-29T07:57:00.814Z,7.12
2022-11-29T07:58:00.806Z,7.09
2022-11-29T07:59:00.826Z,7.00
2022-11-29T08:00:00.787Z,7.14
2022-11-29T08:01:00.819Z,7.12
2022-11-29T08:02:00.800Z,7.11
2022-11-29T08:03:00.759Z,7.04
2022-11-29T08:04:00.761Z,7.00
2022-11-29T08:05:00.743Z,6.93
2022-11-29T08:06:00.731Z,6.91
2022-11-29T08:07:00.722Z,6.94
2022-11-29T08:08:00.748Z,6.94
2022-11-29T08:09:00.717Z,6.86
2022-11-29T08:10:00.695Z,6.81
2022-11-29T08:11:00.686Z,6.96
2022-11-29T08:12:00.679Z,6.89
2022-11-29T08:13:00.667Z,7.08
2022-11-29T08:14:00.671Z,7.07
2022-11-29T08:15:00.652Z,7.12
2022-11-29T08:16:00.673Z,7.18
2022-11-29T08:17:00.634Z,7.19
2022-11-29T08:18:00.633Z,7.32
2022-11-29T08:19:00.627Z,7.32
2022-11-29T08:20:32.511Z,7.24
2022-11-29T08:21:00.598Z,7.12
2022-11-29T08:22:00.584Z,7.14
2022-11-29T08:23:00.572Z,7.15
2022-11-29T08:24:00.581Z,7.18
2022-11-29T08:25:00.554Z,7.24
2022-11-29T08:26:00.557Z,7.15
2022-11-29T08:27:00.540Z,7.07
2022-11-29T08:28:00.531Z,6.94
2022-11-29T08:29:00.533Z,6.94
2022-11-29T08:30:00.514Z,6.96
2022-11-29T08:31:00.502Z,6.97
2022-11-29T08:32:00.557Z,6.91
2022-11-29T08:33:00.481Z,6.93
2022-11-29T08:34:00.484Z,6.90
2022-11-29T08:35:00.469Z,6.94
2022-11-29T08:36:00.457Z,7.08
2022-11-29T08:37:00.450Z,7.21
2022-11-29T08:38:00.438Z,7.18
2022-11-29T08:39:07.461Z,7.21
2022-11-29T08:40:02.416Z,7.34
2022-11-29T08:41:00.403Z,7.26
2022-11-29T08:42:00.431Z,7.41
2022-11-29T08:43:00.389Z,7.39
2022-11-29T08:44:00.390Z,7.47
2022-11-29T08:45:00.366Z,7.39
2022-11-29T08:46:00.420Z,7.41
2022-11-29T08:47:00.354Z,7.54
2022-11-29T08:48:00.347Z,7.48
2022-11-29T08:49:00.338Z,7.51
2022-11-29T08:50:00.319Z,7.52
2022-11-29T08:51:00.311Z,7.57
2022-11-29T08:52:00.301Z,7.74
2022-11-29T08:53:00.292Z,7.62
2022-11-29T08:54:00.290Z,7.66
2022-11-29T08:55:03.109Z,7.69
2022-11-29T08:56:01.263Z,7.63
2022-11-29T08:57:37.449Z,7.73
2022-11-29T08:58:02.243Z,7.70
2022-11-29T08:59:00.242Z,7.70
2022-11-29T09:00:00.243Z,7.70
2022-11-29T09:01:00.288Z,7.82
2022-11-29T09:02:01.232Z,7.82
2022-11-29T09:03:00.192Z,7.77
2022-11-29T09:04:00.192Z,7.74
2022-11-29T09:05:00.162Z,7.66
2022-11-29T09:06:01.164Z,7.42
2022-11-29T09:07:00.146Z,7.58
2022-11-29T09:08:00.282Z,7.73
2022-11-29T09:09:00.137Z,7.76
2022-11-29T09:10:00.116Z,7.81
2022-11-29T09:11:00.107Z,7.77
2022-11-29T09:12:00.100Z,7.54
2022-11-29T09:13:00.092Z,7.60
2022-11-29T09:14:00.125Z,7.74
2022-11-29T09:15:00.080Z,7.73
2022-11-29T09:16:00.088Z,7.77
2022-11-29T09:17:00.116Z,7.84
2022-11-29T09:18:00.044Z,7.88
2022-11-29T09:19:00.061Z,7.81
2022-11-29T09:20:00.029Z,7.60
2022-11-29T09:21:00.030Z,7.54
2022-11-29T09:22:00.015Z,7.37
2022-11-29T09:22:59.996Z,7.30
2022-11-29T09:24:00.064Z,7.21
2022-11-29T09:24:59.978Z,7.23
2022-11-29T09:25:59.972Z,7.19
2022-11-29T09:26:59.993Z,7.07
2022-11-29T09:27:59.947Z,7.09
2022-11-29T09:28:59.950Z,7.00
2022-11-29T09:29:59.927Z,7.04
2022-11-29T09:30:59.933Z,7.12
2022-11-29T09:31:59.944Z,7.12
2022-11-29T09:32:59.903Z,7.05
2022-11-29T09:33:59.905Z,7.04
2022-11-29T09:34:59.882Z,6.99
2022-11-29T09:35:59.869Z,6.93
2022-11-29T09:36:59.865Z,6.99
2022-11-29T09:37:59.859Z,7.11
2022-11-29T09:38:59.886Z,7.07
2022-11-29T09:39:59.832Z,7.07
2022-11-29T09:40:59.827Z,7.05
2022-11-29T09:41:59.815Z,7.07
2022-11-29T09:42:59.808Z,7.07
2022-11-29T09:43:59.809Z,7.15
2022-11-29T09:44:59.797Z,7.18
2022-11-29T09:45:59.815Z,7.21
2022-11-29T09:46:59.775Z,7.33
2022-11-29T09:47:59.765Z,7.33
2022-11-29T09:48:59.767Z,7.33
2022-11-29T09:49:59.863Z,7.27
2022-11-29T09:50:59.733Z,7.27
2022-11-29T09:51:59.757Z,7.21
2022-11-29T09:52:59.716Z,7.24
2022-11-29T09:53:59.719Z,7.16
2022-11-29T09:54:59.701Z,7.09
2022-11-29T09:55:59.697Z,7.09
2022-11-29T09:56:59.678Z,7.08
2022-11-29T09:57:59.671Z,6.97
2022-11-29T09:58:59.674Z,7.08
2022-11-29T09:59:59.653Z,6.93
2022-11-29T10:00:59.666Z,7.09
2022-11-29T10:01:59.661Z,6.93
2022-11-29T10:02:59.621Z,6.90
2022-11-29T10:03:59.631Z,6.96
2022-11-29T10:04:59.622Z,6.96
2022-11-29T10:05:59.605Z,6.78
2022-11-29T10:06:59.594Z,6.90
2022-11-29T10:07:59.610Z,6.94
2022-11-29T10:09:00.580Z,7.00
2022-11-29T10:09:59.557Z,7.05
2022-11-29T10:10:59.554Z,7.14
2022-11-29T10:11:59.589Z,7.16
2022-11-29T10:12:59.537Z,7.16
2022-11-29T10:13:59.547Z,7.16
2022-11-29T10:14:59.572Z,7.12
2022-11-29T10:15:59.512Z,7.29
2022-11-29T10:16:59.652Z,7.16
2022-11-29T10:17:59.539Z,7.12
2022-11-29T10:18:59.499Z,7.18
2022-11-29T10:19:59.539Z,7.29
2022-11-29T10:20:59.465Z,7.16
2022-11-29T10:21:59.468Z,7.16
2022-11-29T10:22:59.446Z,7.16
2022-11-29T10:23:59.429Z,7.11
2022-11-29T10:24:59.433Z,7.07
2022-11-29T10:25:59.408Z,7.11
2022-11-29T10:26:59.411Z,7.14
2022-11-29T10:27:59.388Z,7.24
2022-11-29T10:28:59.383Z,7.27
2022-11-29T10:29:59.425Z,7.19
2022-11-29T10:30:59.434Z,7.12
2022-11-29T10:31:59.365Z,7.09
2022-11-29T10:32:59.406Z,7.04
2022-11-29T10:33:59.328Z,7.15
2022-11-29T10:34:59.348Z,6.96
2022-11-29T10:35:59.332Z,6.97
2022-11-29T10:36:59.298Z,7.05
2022-11-29T10:38:28.992Z,6.94
2022-11-29T10:39:01.291Z,7.00
2022-11-29T10:39:59.281Z,6.99
2022-11-29T10:40:59.260Z,7.08
2022-11-29T10:41:59.252Z,7.11
2022-11-29T10:42:59.241Z,7.14
2022-11-29T10:43:59.235Z,7.16
2022-11-29T10:44:59.236Z,7.23
2022-11-29T10:45:59.259Z,7.37
2022-11-29T10:46:59.204Z,7.30
2022-11-29T10:47:59.194Z,7.37
2022-11-29T10:48:59.189Z,7.34
2022-11-29T10:49:59.189Z,7.36
2022-11-29T10:50:59.184Z,7.47
2022-11-29T10:51:59.206Z,7.54
2022-11-29T10:53:00.247Z,7.60
2022-11-29T10:54:00.148Z,7.69
2022-11-29T10:54:59.269Z,7.67
2022-11-29T10:55:59.124Z,7.74
2022-11-29T10:56:59.125Z,7.48
2022-11-29T10:57:59.139Z,7.50
2022-11-29T10:58:59.117Z,7.42
2022-11-29T10:59:59.095Z,7.44
2022-11-29T11:00:59.117Z,7.51
2022-11-29T11:01:59.063Z,7.45
2022-11-29T11:02:59.061Z,7.54
2022-11-29T11:03:59.050Z,7.73
2022-11-29T11:04:59.049Z,7.74
2022-11-29T11:05:59.082Z,7.86
2022-11-29T11:06:59.038Z,7.88
2022-11-29T11:07:59.132Z,7.82
2022-11-29T11:08:59.058Z,7.88
2022-11-29T11:09:59.025Z,7.88
2022-11-29T11:11:01.830Z,7.92
2022-11-29T11:11:59.976Z,7.94
2022-11-29T11:12:58.957Z,7.86
2022-11-29T11:13:58.948Z,7.82
2022-11-29T11:14:58.951Z,7.85
2022-11-29T11:15:58.929Z,7.82
2022-11-29T11:16:59.005Z,7.77
2022-11-29T11:17:58.920Z,7.73
2022-11-29T11:18:58.905Z,7.73
2022-11-29T11:19:58.907Z,7.74
2022-11-29T11:20:58.885Z,7.69
2022-11-29T11:21:58.875Z,7.74
2022-11-29T11:22:58.876Z,7.79
2022-11-29T11:23:58.859Z,7.88
2022-11-29T11:24:58.879Z,7.84
2022-11-29T11:25:58.831Z,7.76
2022-11-29T11:26:58.831Z,7.67
2022-11-29T11:27:58.815Z,7.84
2022-11-29T11:28:58.814Z,7.89
2022-11-29T11:29:58.805Z,7.79
2022-11-29T11:30:58.826Z,7.85
2022-11-29T11:31:58.832Z,7.67
2022-11-29T11:32:58.770Z,7.62
2022-11-29T11:33:58.758Z,7.63
2022-11-29T11:34:58.767Z,7.77
2022-11-29T11:35:58.739Z,7.74
2022-11-29T11:36:58.730Z,7.84
2022-11-29T11:37:58.723Z,7.79
2022-11-29T11:38:58.718Z,7.91
2022-11-29T11:39:58.785Z,7.84
2022-11-29T11:40:58.697Z,7.70
2022-11-29T11:41:58.734Z,7.60
2022-11-29T11:42:58.675Z,7.51
2022-11-29T11:43:58.671Z,7.36
2022-11-29T11:44:58.971Z,7.30
2022-11-29T11:45:58.695Z,7.30
2022-11-29T11:46:58.633Z,7.26
2022-11-29T11:47:58.629Z,7.41
2022-11-29T11:48:58.615Z,7.52
2022-11-29T11:49:58.620Z,7.50
2022-11-29T11:50:58.624Z,7.82
2022-11-29T11:51:58.610Z,7.51
2022-11-29T11:52:58.585Z,7.66
2022-11-29T11:53:58.577Z,7.66
2022-11-29T11:54:58.574Z,7.74
2022-11-29T11:55:58.552Z,7.73
2022-11-29T11:56:58.547Z,7.69
2022-11-29T11:57:58.540Z,7.81
2022-11-29T11:58:58.529Z,7.85
2022-11-29T12:00:03.387Z,7.95
2022-11-29T12:01:05.006Z,7.89
2022-11-29T12:02:01.180Z,7.86
2022-11-29T12:02:58.554Z,7.67
2022-11-29T12:03:58.511Z,7.69
2022-11-29T12:04:58.537Z,7.82
2022-11-29T12:05:58.468Z,7.73
2022-11-29T12:06:58.468Z,7.85
2022-11-29T12:08:13.886Z,7.92
2022-11-29T12:09:00.437Z,8.02
2022-11-29T12:09:58.442Z,7.92
2022-11-29T12:11:00.568Z,7.95
2022-11-29T12:11:59.435Z,7.91
2022-11-29T12:12:58.398Z,7.86
2022-11-29T12:13:58.382Z,7.82
2022-11-29T12:14:58.385Z,7.77
2022-11-29T12:15:58.381Z,7.76
2022-11-29T12:16:58.351Z,7.66
2022-11-29T12:17:58.339Z,7.66
2022-11-29T12:18:58.358Z,7.73
2022-11-29T12:19:58.332Z,7.74
2022-11-29T12:20:58.318Z,7.85
2022-11-29T12:21:58.306Z,7.67
2022-11-29T12:22:58.312Z,7.52
2022-11-29T12:23:58.288Z,7.50
2022-11-29T12:24:58.289Z,7.50
2022-11-29T12:25:58.286Z,7.52
2022-11-29T12:26:59.062Z,7.66
2022-11-29T12:27:59.266Z,7.76
2022-11-29T12:28:58.243Z,7.85
2022-11-29T12:29:58.248Z,8.06
2022-11-29T12:30:58.276Z,8.09
2022-11-29T12:31:58.218Z,8.02
2022-11-29T12:32:58.208Z,8.14
2022-11-29T12:33:58.197Z,8.09
2022-11-29T12:34:58.203Z,8.14
2022-11-29T12:35:58.178Z,8.17
2022-11-29T12:36:58.163Z,8.24
2022-11-29T12:37:58.155Z,8.10
2022-11-29T12:38:59.151Z,8.12
2022-11-29T12:39:58.177Z,8.20
2022-11-29T12:40:58.131Z,8.18
2022-11-29T12:41:58.116Z,8.25
2022-11-29T12:42:58.110Z,8.24
2022-11-29T12:43:58.123Z,8.34
2022-11-29T12:44:58.103Z,8.36
2022-11-29T12:45:58.108Z,8.40
2022-11-29T12:47:34.183Z,8.55
2022-11-29T12:48:00.069Z,8.60
2022-11-29T12:48:58.049Z,8.64
2022-11-29T12:49:58.064Z,8.60
2022-11-29T12:50:58.021Z,8.47
2022-11-29T12:51:59.021Z,8.36
2022-11-29T12:52:58.010Z,8.43
2022-11-29T12:53:57.999Z,8.49
2022-11-29T12:54:58.007Z,8.45
2022-11-29T12:55:57.981Z,8.46
2022-11-29T12:56:58.002Z,8.42
2022-11-29T12:57:57.969Z,8.43
2022-11-29T12:58:57.957Z,8.47
2022-11-29T12:59:57.958Z,8.42
2022-11-29T13:00:58.007Z,8.45
2022-11-29T13:01:57.968Z,8.43
2022-11-29T13:02:57.956Z,8.54
2022-11-29T13:03:57.918Z,8.49
2022-11-29T13:04:59.933Z,8.55
2022-11-29T13:05:58.955Z,8.55
2022-11-29T13:06:57.879Z,8.60
2022-11-29T13:07:57.896Z,8.55
2022-11-29T13:08:57.859Z,8.58
2022-11-29T13:09:57.844Z,8.61
2022-11-29T13:10:57.859Z,8.68
2022-11-29T13:11:57.825Z,8.71
2022-11-29T13:12:57.819Z,8.61
2022-11-29T13:14:13.847Z,8.65
2022-11-29T13:15:00.182Z,8.64
2022-11-29T13:15:57.842Z,8.68
2022-11-29T13:16:57.784Z,8.70
2022-11-29T13:17:57.767Z,8.71